createdAt,value
2018-07-26T00:01:11.520Z,12.93
2018-07-26T00:03:38.791Z,9.57
2018-07-26T00:06:06.073Z,8.93
2018-07-26T00:08:33.360Z,8.70
2018-07-26T00:11:00.676Z,8.90
2018-07-26T00:13:27.969Z,10.77
2018-07-26T00:15:55.356Z,9.50
2018-07-26T00:18:22.800Z,8.83
2018-07-26T00:20:50.224Z,9.43
2018-07-26T00:23:18.256Z,9.83
2018-07-26T00:25:45.676Z,9.10
2018-07-26T00:28:13.110Z,9.60
2018-07-26T00:30:41.520Z,8.40
2018-07-26T00:33:08.941Z,7.70
2018-07-26T00:35:36.352Z,9.33
2018-07-26T00:38:04.000Z,8.37
2018-07-26T00:40:31.469Z,9.23
2018-07-26T00:42:58.892Z,17.23
2018-07-26T00:45:26.297Z,13.97
2018-07-26T00:47:53.696Z,12.47
2018-07-26T00:50:21.020Z,9.87
2018-07-26T00:52:48.345Z,12.13
2018-07-26T00:55:15.624Z,10.10
2018-07-26T00:57:42.964Z,12.53
2018-07-26T01:00:10.452Z,10.73
2018-07-26T01:02:37.757Z,9.00
2018-07-26T01:05:05.168Z,8.57
2018-07-26T01:07:32.536Z,8.53
2018-07-26T01:09:59.792Z,9.23
2018-07-26T01:12:27.072Z,9.47
2018-07-26T01:14:54.337Z,10.50
2018-07-26T01:20:05.524Z,8.80
2018-07-26T01:22:32.829Z,9.33
2018-07-26T01:25:00.106Z,9.50
2018-07-26T01:27:27.376Z,16.57
2018-07-26T01:29:54.692Z,8.63
2018-07-26T01:32:21.952Z,9.00
2018-07-26T01:34:49.235Z,10.40
2018-07-26T01:37:16.520Z,9.30
2018-07-26T01:39:43.853Z,10.23
2018-07-26T01:42:11.118Z,15.00
2018-07-26T01:44:38.405Z,9.10
2018-07-26T01:47:05.672Z,9.00
2018-07-26T01:49:32.969Z,14.47
2018-07-26T01:52:00.245Z,10.27
2018-07-26T01:54:27.538Z,14.10
2018-07-26T01:56:54.847Z,11.83
2018-07-26T01:59:22.120Z,11.30
2018-07-26T02:01:49.683Z,9.73
2018-07-26T02:04:16.888Z,10.50
2018-07-26T02:06:44.230Z,10.27
2018-07-26T02:09:11.532Z,11.03
2018-07-26T02:11:38.804Z,11.93
2018-07-26T02:14:10.714Z,9.10
2018-07-26T02:16:38.003Z,9.53
2018-07-26T02:19:05.498Z,10.87
2018-07-26T02:21:32.811Z,12.33
2018-07-26T02:24:00.142Z,12.30
2018-07-26T02:26:27.405Z,8.57
2018-07-26T02:28:54.696Z,8.07
2018-07-26T02:31:21.960Z,11.20
2018-07-26T02:33:49.245Z,11.97
2018-07-26T02:36:16.528Z,10.07
2018-07-26T02:38:43.801Z,13.93
2018-07-26T02:41:11.169Z,13.13
2018-07-26T02:43:38.428Z,10.10
2018-07-26T02:46:05.757Z,13.53
2018-07-26T02:48:33.053Z,18.27
2018-07-26T02:51:00.332Z,12.60
2018-07-26T02:53:27.640Z,12.47
2018-07-26T02:55:54.958Z,9.20
2018-07-26T02:58:22.234Z,10.00
2018-07-26T03:00:49.533Z,9.90
2018-07-26T03:03:17.008Z,10.93
2018-07-26T03:05:44.457Z,8.63
2018-07-26T03:08:11.741Z,15.20
2018-07-26T03:10:39.018Z,17.80
2018-07-26T03:13:06.327Z,13.03
2018-07-26T03:15:33.601Z,10.20
2018-07-26T03:18:00.929Z,9.80
2018-07-26T03:20:28.235Z,10.63
2018-07-26T03:22:55.536Z,11.53
2018-07-26T03:25:22.852Z,13.43
2018-07-26T03:27:50.128Z,10.90
2018-07-26T03:30:17.372Z,12.50
2018-07-26T03:32:44.672Z,10.63
2018-07-26T03:35:11.948Z,11.70
2018-07-26T03:37:39.237Z,13.30
2018-07-26T03:40:06.561Z,11.93
2018-07-26T03:42:33.848Z,12.70
2018-07-26T03:45:01.128Z,10.73
2018-07-26T03:47:28.432Z,10.27
2018-07-26T03:49:55.709Z,11.83
2018-07-26T03:52:23.025Z,11.80
2018-07-26T03:54:50.312Z,12.63
2018-07-26T03:57:17.572Z,15.83
2018-07-26T03:59:44.870Z,17.23
2018-07-26T04:02:12.190Z,15.27
2018-07-26T04:04:39.660Z,20.83
2018-07-26T04:07:06.968Z,14.27
2018-07-26T04:09:34.252Z,15.87
2018-07-26T04:12:01.550Z,11.60
2018-07-26T04:14:28.884Z,22.23
2018-07-26T04:16:56.176Z,18.07
2018-07-26T04:19:23.449Z,14.40
2018-07-26T04:21:50.748Z,12.40
2018-07-26T04:24:18.052Z,12.03
2018-07-26T04:26:45.316Z,12.40
2018-07-26T04:29:12.593Z,11.17
2018-07-26T04:31:39.900Z,12.10
2018-07-26T04:34:07.169Z,11.03
2018-07-26T04:36:34.460Z,11.67
2018-07-26T04:39:01.760Z,15.83
2018-07-26T04:41:29.048Z,12.07
2018-07-26T04:43:56.324Z,12.40
2018-07-26T04:46:23.591Z,11.40
2018-07-26T04:48:50.884Z,11.97
2018-07-26T04:51:18.132Z,12.60
2018-07-26T04:53:45.413Z,12.53
2018-07-26T04:56:12.708Z,17.17
2018-07-26T04:58:40.140Z,11.10
2018-07-26T05:01:07.460Z,16.10
2018-07-26T05:03:34.724Z,17.70
2018-07-26T05:06:02.249Z,17.03
2018-07-26T05:08:29.529Z,12.63
2018-07-26T05:10:56.823Z,11.83
2018-07-26T05:13:24.112Z,13.17
2018-07-26T05:15:51.420Z,11.53
2018-07-26T05:18:18.732Z,11.93
2018-07-26T05:20:45.988Z,15.37
2018-07-26T05:23:13.293Z,14.03
2018-07-26T05:25:40.632Z,16.00
2018-07-26T05:28:07.924Z,15.87
2018-07-26T05:30:35.196Z,13.00
2018-07-26T05:33:02.498Z,11.87
2018-07-26T05:35:29.802Z,13.83
2018-07-26T05:37:57.121Z,13.40
2018-07-26T05:40:24.388Z,10.50
2018-07-26T05:42:51.677Z,14.07
2018-07-26T05:45:18.956Z,11.50
2018-07-26T05:47:46.241Z,13.87
2018-07-26T05:50:13.518Z,20.33
2018-07-26T05:52:40.824Z,14.80
2018-07-26T05:55:08.960Z,12.27
2018-07-26T05:57:36.328Z,11.03
2018-07-26T06:00:05.560Z,12.23
2018-07-26T06:02:32.816Z,11.70
2018-07-26T06:05:00.093Z,11.23
2018-07-26T06:07:27.652Z,18.03
2018-07-26T06:09:54.924Z,11.77
2018-07-26T06:12:22.180Z,13.13
2018-07-26T06:14:49.468Z,14.70
2018-07-26T06:17:16.829Z,12.13
2018-07-26T06:19:44.079Z,11.13
2018-07-26T06:22:11.361Z,10.63
2018-07-26T06:24:38.717Z,11.40
2018-07-26T06:27:06.017Z,8.80
2018-07-26T06:29:33.293Z,9.37
2018-07-26T06:32:00.582Z,10.17
2018-07-26T06:34:27.892Z,12.30
2018-07-26T06:36:55.189Z,8.20
2018-07-26T06:39:22.499Z,11.47
2018-07-26T06:41:49.784Z,7.90
2018-07-26T06:44:17.088Z,7.77
2018-07-26T06:46:44.416Z,7.43
2018-07-26T06:49:11.716Z,7.90
2018-07-26T06:51:38.988Z,8.60
2018-07-26T06:54:06.528Z,8.43
2018-07-26T06:56:33.878Z,8.70
2018-07-26T06:59:01.181Z,8.60
2018-07-26T07:01:28.448Z,8.57
2018-07-26T07:03:55.716Z,18.87
2018-07-26T07:06:22.992Z,14.30
2018-07-26T07:08:50.562Z,10.00
2018-07-26T07:11:17.836Z,6.57
2018-07-26T07:13:45.313Z,9.30
2018-07-26T07:16:12.760Z,8.47
2018-07-26T07:18:40.049Z,9.70
2018-07-26T07:21:07.316Z,17.00
2018-07-26T07:23:34.614Z,7.83
2018-07-26T07:26:01.916Z,8.50
2018-07-26T07:28:29.188Z,6.13
2018-07-26T07:30:56.601Z,15.07
2018-07-26T07:33:23.911Z,16.47
2018-07-26T07:35:51.228Z,5.93
2018-07-26T07:38:18.588Z,6.80
2018-07-26T07:40:45.897Z,12.87
2018-07-26T07:43:13.173Z,5.60
2018-07-26T07:45:40.481Z,8.67
2018-07-26T07:48:07.824Z,10.60
2018-07-26T07:50:35.112Z,8.03
2018-07-26T07:53:02.451Z,6.23
2018-07-26T07:55:29.761Z,4.40
2018-07-26T07:57:57.054Z,9.10
2018-07-26T08:00:24.331Z,13.43
2018-07-26T08:02:51.688Z,6.77
2018-07-26T08:05:18.983Z,4.70
2018-07-26T08:07:46.311Z,4.10
2018-07-26T08:10:13.844Z,4.40
2018-07-26T08:12:41.227Z,4.93
2018-07-26T08:15:09.432Z,6.80
2018-07-26T08:17:36.761Z,6.77
2018-07-26T08:20:04.208Z,12.60
2018-07-26T08:22:31.492Z,18.43
2018-07-26T08:24:58.830Z,8.37
2018-07-26T08:27:26.283Z,6.93
2018-07-26T08:29:53.576Z,4.60
2018-07-26T08:32:20.876Z,6.63
2018-07-26T08:34:48.265Z,5.67
2018-07-26T08:37:15.536Z,11.23
2018-07-26T08:39:42.845Z,7.30
2018-07-26T08:42:10.158Z,3.50
2018-07-26T08:44:37.472Z,3.20
2018-07-26T08:47:04.803Z,9.10
2018-07-26T08:49:32.204Z,4.10
2018-07-26T08:51:59.496Z,3.50
2018-07-26T08:54:26.844Z,6.00
2018-07-26T08:56:54.105Z,5.03
2018-07-26T08:59:21.386Z,4.20
2018-07-26T09:01:48.660Z,3.40
2018-07-26T09:04:15.996Z,6.57
2018-07-26T09:06:43.302Z,5.00
2018-07-26T09:09:12.160Z,5.10
2018-07-26T09:11:40.033Z,3.93
2018-07-26T09:14:07.385Z,4.17
2018-07-26T09:16:34.756Z,2.87
2018-07-26T09:19:02.925Z,3.70
2018-07-26T09:21:30.291Z,3.10
2018-07-26T09:23:57.568Z,3.17
2018-07-26T09:26:24.877Z,3.80
2018-07-26T09:28:52.282Z,5.23
2018-07-26T09:31:19.508Z,5.10
2018-07-26T09:33:46.808Z,3.30
2018-07-26T09:36:14.401Z,3.53
2018-07-26T09:38:41.672Z,4.40
2018-07-26T09:41:09.045Z,3.30
2018-07-26T09:43:36.376Z,3.40
2018-07-26T09:46:03.689Z,3.10
2018-07-26T09:48:30.990Z,4.90
2018-07-26T09:50:58.296Z,3.07
2018-07-26T09:53:25.620Z,32.00
2018-07-26T09:55:52.930Z,41.77
2018-07-26T09:58:20.316Z,58.17
2018-07-26T10:00:53.332Z,3.33
2018-07-26T10:03:20.629Z,3.70
2018-07-26T10:05:47.893Z,4.00
2018-07-26T10:08:15.164Z,6.00
2018-07-26T10:10:42.464Z,3.40
2018-07-26T10:13:09.928Z,3.70
2018-07-26T10:15:37.225Z,4.03
2018-07-26T10:18:04.512Z,3.60
2018-07-26T10:20:31.845Z,5.23
2018-07-26T10:22:59.165Z,3.40
2018-07-26T10:25:26.448Z,3.23
2018-07-26T10:27:53.782Z,3.70
2018-07-26T10:30:21.075Z,3.67
2018-07-26T10:32:48.345Z,5.10
2018-07-26T10:35:15.640Z,3.90
2018-07-26T10:37:42.975Z,4.03
2018-07-26T10:40:10.284Z,3.57
2018-07-26T10:42:37.580Z,6.80
2018-07-26T10:45:04.893Z,4.17
2018-07-26T10:47:32.198Z,5.43
2018-07-26T10:49:59.525Z,4.13
2018-07-26T10:52:26.798Z,4.37
2018-07-26T10:54:54.080Z,3.87
2018-07-26T10:57:21.361Z,5.57
2018-07-26T10:59:48.678Z,3.53
2018-07-26T11:02:17.032Z,4.00
2018-07-26T11:04:44.405Z,4.50
2018-07-26T11:07:11.887Z,4.63
2018-07-26T11:09:39.202Z,4.23
2018-07-26T11:12:06.517Z,3.47
2018-07-26T11:18:12.380Z,3.97
2018-07-26T11:20:39.820Z,3.67
2018-07-26T11:23:07.159Z,4.13
2018-07-26T11:25:34.476Z,3.07
2018-07-26T11:28:01.775Z,5.90
2018-07-26T11:30:29.100Z,8.00
2018-07-26T11:32:56.403Z,4.20
2018-07-26T11:35:23.745Z,4.07
2018-07-26T11:37:51.032Z,3.90
2018-07-26T11:40:18.297Z,4.13
2018-07-26T11:42:45.600Z,3.90
2018-07-26T11:45:12.872Z,4.87
2018-07-26T11:47:40.236Z,4.07
2018-07-26T11:50:08.317Z,5.43
2018-07-26T11:52:35.574Z,3.50
2018-07-26T11:55:02.973Z,6.00
2018-07-26T11:57:30.255Z,4.20
2018-07-26T11:59:57.565Z,3.90
2018-07-26T12:02:24.912Z,4.20
2018-07-26T12:04:52.144Z,8.27
2018-07-26T12:07:19.472Z,7.50
2018-07-26T12:09:46.750Z,6.07
2018-07-26T12:12:14.040Z,4.40
2018-07-26T12:14:41.604Z,4.10
2018-07-26T12:17:08.908Z,3.90
2018-07-26T12:19:36.692Z,4.10
2018-07-26T12:22:04.134Z,4.10
2018-07-26T12:24:31.416Z,4.00
2018-07-26T12:26:58.741Z,4.03
2018-07-26T12:29:26.001Z,4.10
2018-07-26T12:31:53.276Z,4.57
2018-07-26T12:34:20.555Z,5.53
2018-07-26T12:36:47.828Z,4.40
2018-07-26T12:39:15.112Z,3.77
2018-07-26T12:41:42.388Z,4.17
2018-07-26T12:44:09.842Z,7.90
2018-07-26T12:46:37.213Z,5.27
2018-07-26T12:49:04.501Z,5.50
2018-07-26T12:51:32.044Z,4.90
2018-07-26T12:53:59.750Z,6.57
2018-07-26T12:56:27.106Z,4.20
2018-07-26T12:58:54.548Z,5.43
2018-07-26T13:01:21.884Z,5.10
2018-07-26T13:03:49.120Z,4.80
2018-07-26T13:06:16.480Z,4.50
2018-07-26T13:08:43.853Z,9.07
2018-07-26T13:11:11.124Z,4.20
2018-07-26T13:13:38.620Z,4.67
2018-07-26T13:16:06.241Z,7.03
2018-07-26T13:18:33.524Z,9.57
2018-07-26T13:21:00.884Z,4.90
2018-07-26T13:23:28.138Z,6.30
2018-07-26T13:25:55.520Z,5.87
2018-07-26T13:28:22.786Z,4.77
2018-07-26T13:30:50.081Z,6.90
2018-07-26T13:33:17.368Z,4.80
2018-07-26T13:35:44.715Z,4.90
2018-07-26T13:38:12.153Z,5.93
2018-07-26T13:40:39.425Z,5.47
2018-07-26T13:43:06.720Z,4.50
2018-07-26T13:45:34.005Z,3.93
2018-07-26T13:48:01.289Z,5.40
2018-07-26T13:50:28.574Z,4.83
2018-07-26T13:52:55.839Z,4.93
2018-07-26T13:55:23.100Z,5.17
2018-07-26T13:57:50.389Z,5.20
2018-07-26T14:00:17.697Z,5.70
2018-07-26T14:02:44.969Z,5.50
2018-07-26T14:05:12.292Z,5.50
2018-07-26T14:07:39.564Z,5.90
2018-07-26T14:10:07.056Z,5.10
2018-07-26T14:12:34.580Z,5.83
2018-07-26T14:15:02.006Z,5.13
2018-07-26T14:17:29.527Z,5.13
2018-07-26T14:19:56.813Z,11.53
2018-07-26T14:22:24.126Z,8.43
2018-07-26T14:24:51.662Z,4.50
2018-07-26T14:27:18.969Z,5.37
2018-07-26T14:29:46.244Z,8.33
2018-07-26T14:32:13.523Z,7.30
2018-07-26T14:34:40.804Z,5.80
2018-07-26T14:37:08.069Z,5.63
2018-07-26T14:39:35.325Z,6.20
2018-07-26T14:42:02.604Z,6.20
2018-07-26T14:44:29.885Z,6.47
2018-07-26T14:46:57.189Z,5.40
2018-07-26T14:49:24.557Z,6.30
2018-07-26T14:51:51.909Z,10.63
2018-07-26T14:54:19.139Z,6.20
2018-07-26T14:56:46.420Z,6.23
2018-07-26T14:59:13.696Z,8.33
2018-07-26T15:01:40.977Z,5.90
2018-07-26T15:04:08.289Z,5.10
2018-07-26T15:06:35.554Z,6.23
2018-07-26T15:09:04.988Z,10.50
2018-07-26T15:11:32.277Z,8.67
2018-07-26T15:13:59.545Z,5.57
2018-07-26T15:16:26.843Z,6.23
2018-07-26T15:18:54.337Z,9.53
2018-07-26T15:21:21.629Z,5.80
2018-07-26T15:23:48.905Z,6.07
2018-07-26T15:26:16.233Z,5.40
2018-07-26T15:28:43.482Z,9.67
2018-07-26T15:31:10.875Z,6.13
2018-07-26T15:33:38.113Z,6.53
2018-07-26T15:36:05.452Z,5.57
2018-07-26T15:38:32.718Z,5.87
2018-07-26T15:41:00.027Z,6.40
2018-07-26T15:43:27.338Z,5.70
2018-07-26T15:45:54.652Z,6.13
2018-07-26T15:48:21.924Z,5.43
2018-07-26T15:50:49.209Z,5.17
2018-07-26T15:53:16.525Z,5.67
2018-07-26T15:55:43.810Z,8.20
2018-07-26T15:58:11.087Z,6.80
2018-07-26T16:00:38.412Z,11.07
2018-07-26T16:03:05.691Z,5.67
2018-07-26T16:05:32.985Z,7.80
2018-07-26T16:08:00.268Z,7.20
2018-07-26T16:10:27.562Z,8.03
2018-07-26T16:12:54.860Z,7.80
2018-07-26T16:15:22.189Z,5.87
2018-07-26T16:17:49.562Z,5.40
2018-07-26T16:20:16.997Z,5.87
2018-07-26T16:22:45.160Z,7.60
2018-07-26T16:25:12.476Z,5.90
2018-07-26T16:27:39.947Z,8.80
2018-07-26T16:30:08.533Z,7.00
2018-07-26T16:32:35.805Z,5.60
2018-07-26T16:35:03.441Z,6.00
2018-07-26T16:37:30.774Z,6.67
2018-07-26T16:39:58.167Z,5.80
2018-07-26T16:42:25.429Z,9.10
2018-07-26T16:44:52.728Z,8.00
2018-07-26T16:47:20.992Z,5.43
2018-07-26T16:49:48.284Z,6.97
2018-07-26T16:52:15.585Z,5.73
2018-07-26T16:54:42.916Z,5.83
2018-07-26T16:57:10.193Z,8.43
2018-07-26T16:59:37.461Z,5.00
2018-07-26T17:02:04.813Z,9.67
2018-07-26T17:04:32.085Z,5.47
2018-07-26T17:06:59.383Z,9.20
2018-07-26T17:09:26.685Z,7.37
2018-07-26T17:11:53.977Z,5.57
2018-07-26T17:14:21.318Z,8.50
2018-07-26T17:16:48.624Z,6.13
2018-07-26T17:19:15.912Z,6.88
2018-07-26T17:21:43.413Z,6.23
2018-07-26T17:24:10.684Z,7.70
2018-07-26T17:26:37.941Z,12.70
2018-07-26T17:29:05.272Z,6.50
2018-07-26T17:31:32.528Z,14.43
2018-07-26T17:33:59.834Z,6.10
2018-07-26T17:36:27.089Z,6.30
2018-07-26T17:38:54.444Z,8.47
2018-07-26T17:41:21.712Z,9.20
2018-07-26T17:43:49.042Z,13.97
2018-07-26T17:46:16.405Z,6.00
2018-07-26T17:48:43.681Z,7.63
2018-07-26T17:51:11.436Z,11.23
2018-07-26T17:53:38.660Z,7.40
2018-07-26T17:56:06.004Z,7.60
2018-07-26T17:58:33.281Z,7.53
2018-07-26T18:01:00.589Z,7.60
2018-07-26T18:03:27.886Z,10.13
2018-07-26T18:05:55.227Z,17.83
2018-07-26T18:08:22.452Z,15.00
2018-07-26T18:10:49.749Z,9.93
2018-07-26T18:13:17.081Z,9.10
2018-07-26T18:15:44.364Z,9.03
2018-07-26T18:18:11.676Z,8.73
2018-07-26T18:20:38.988Z,7.40
2018-07-26T18:23:06.489Z,9.03
2018-07-26T18:25:33.796Z,9.30
2018-07-26T18:28:01.096Z,5.93
2018-07-26T18:30:28.398Z,9.17
2018-07-26T18:32:55.674Z,7.57
2018-07-26T18:35:22.954Z,8.50
2018-07-26T18:37:50.225Z,11.77
2018-07-26T18:40:17.546Z,8.30
2018-07-26T18:42:44.837Z,9.00
2018-07-26T18:45:12.324Z,15.37
2018-07-26T18:47:39.806Z,8.43
2018-07-26T18:50:07.753Z,14.03
2018-07-26T18:52:35.055Z,7.03
2018-07-26T18:55:02.486Z,8.00
2018-07-26T18:57:30.086Z,15.60
2018-07-26T18:59:57.417Z,6.90
2018-07-26T19:02:24.752Z,10.37
2018-07-26T19:04:52.025Z,6.73
2018-07-26T19:07:19.323Z,7.33
2018-07-26T19:09:46.605Z,9.03
2018-07-26T19:12:13.948Z,8.70
2018-07-26T19:14:41.229Z,14.70
2018-07-26T19:17:08.552Z,13.80
2018-07-26T19:19:35.853Z,9.10
2018-07-26T19:22:03.142Z,10.93
2018-07-26T19:24:30.672Z,12.00
2018-07-26T19:26:57.961Z,12.23
2018-07-26T19:29:25.277Z,9.03
2018-07-26T19:31:52.560Z,7.53
2018-07-26T19:34:19.837Z,7.00
2018-07-26T19:36:47.124Z,7.07
2018-07-26T19:39:14.425Z,8.17
2018-07-26T19:41:42.175Z,7.37
2018-07-26T19:44:09.494Z,12.27
2018-07-26T19:46:36.737Z,7.77
2018-07-26T19:49:04.241Z,9.53
2018-07-26T19:51:31.589Z,7.13
2018-07-26T19:53:58.906Z,7.60
2018-07-26T19:56:26.128Z,8.10
2018-07-26T19:58:53.409Z,7.07
2018-07-26T20:01:20.732Z,6.87
2018-07-26T20:03:48.164Z,7.50
2018-07-26T20:06:16.319Z,6.80
2018-07-26T20:08:43.580Z,8.77
2018-07-26T20:11:10.924Z,8.57
2018-07-26T20:13:38.124Z,12.67
2018-07-26T20:16:05.414Z,7.87
2018-07-26T20:18:32.694Z,9.07
2018-07-26T20:20:59.977Z,11.80
2018-07-26T20:23:27.312Z,8.20
2018-07-26T20:25:54.897Z,9.90
2018-07-26T20:28:22.220Z,8.97
2018-07-26T20:30:49.501Z,8.37
2018-07-26T20:33:16.771Z,8.90
2018-07-26T20:35:44.087Z,10.43
2018-07-26T20:38:11.387Z,8.30
2018-07-26T20:40:38.668Z,8.87
2018-07-26T20:43:05.956Z,14.87
2018-07-26T20:45:33.233Z,11.70
2018-07-26T20:48:00.517Z,10.30
2018-07-26T20:50:27.821Z,7.80
2018-07-26T20:52:55.089Z,7.10
2018-07-26T20:55:22.374Z,8.37
2018-07-26T20:57:49.820Z,8.27
2018-07-26T21:00:17.158Z,7.67
2018-07-26T21:02:44.449Z,11.53
2018-07-26T21:05:11.745Z,7.60
2018-07-26T21:07:39.013Z,8.30
2018-07-26T21:10:06.781Z,7.97
2018-07-26T21:12:34.369Z,10.17
2018-07-26T21:15:01.653Z,11.73
2018-07-26T21:17:28.941Z,8.10
2018-07-26T21:19:56.212Z,7.67
2018-07-26T21:22:23.477Z,7.90
2018-07-26T21:24:50.761Z,10.53
2018-07-26T21:27:18.221Z,14.40
2018-07-26T21:29:45.497Z,10.23
2018-07-26T21:32:12.805Z,8.30
2018-07-26T21:34:40.085Z,8.50
2018-07-26T21:37:07.372Z,8.83
2018-07-26T21:39:34.662Z,9.73
2018-07-26T21:42:01.972Z,9.00
2018-07-26T21:44:30.700Z,11.10
2018-07-26T21:46:58.039Z,9.40
2018-07-26T21:49:25.340Z,9.43
2018-07-26T21:51:53.838Z,8.53
2018-07-26T21:54:21.154Z,8.17
2018-07-26T21:56:48.456Z,8.47
2018-07-26T21:59:18.060Z,9.80
2018-07-26T22:01:46.401Z,10.03
2018-07-26T22:04:13.692Z,7.57
2018-07-26T22:06:40.976Z,7.50
2018-07-26T22:09:08.841Z,8.00
2018-07-26T22:11:36.645Z,7.90
2018-07-26T22:14:03.957Z,11.80
2018-07-26T22:16:32.053Z,11.73
2018-07-26T22:18:59.340Z,7.80
2018-07-26T22:21:26.628Z,8.37
2018-07-26T22:23:53.929Z,6.90
2018-07-26T22:26:21.228Z,9.13
2018-07-26T22:28:48.709Z,7.53
2018-07-26T22:31:16.808Z,7.50
2018-07-26T22:33:44.096Z,8.13
2018-07-26T22:36:11.367Z,8.83
2018-07-26T22:38:38.660Z,10.17
2018-07-26T22:41:05.948Z,7.93
2018-07-26T22:43:33.229Z,8.37
2018-07-26T22:46:00.529Z,8.83
2018-07-26T22:48:27.806Z,13.03
2018-07-26T22:50:55.105Z,10.50
2018-07-26T22:53:22.388Z,8.37
2018-07-26T22:55:49.664Z,8.27
2018-07-26T22:58:17.000Z,10.37
2018-07-26T23:00:44.265Z,11.17
2018-07-26T23:03:11.568Z,10.73
2018-07-26T23:05:38.828Z,8.67
2018-07-26T23:08:06.104Z,8.87
2018-07-26T23:10:33.382Z,8.40
2018-07-26T23:13:00.652Z,9.70
2018-07-26T23:15:28.001Z,8.43
2018-07-26T23:17:55.213Z,9.27
2018-07-26T23:20:22.545Z,8.80
2018-07-26T23:22:51.157Z,7.80
2018-07-26T23:25:18.664Z,8.90
2018-07-26T23:27:45.963Z,8.80
2018-07-26T23:30:13.432Z,8.87
2018-07-26T23:32:40.766Z,10.03
2018-07-26T23:35:08.589Z,9.53
2018-07-26T23:37:36.059Z,9.37
2018-07-26T23:40:03.980Z,9.67
2018-07-26T23:42:31.273Z,12.80
2018-07-26T23:44:58.573Z,9.83
2018-07-26T23:47:25.840Z,9.80
2018-07-26T23:49:53.139Z,8.73
2018-07-26T23:52:20.413Z,9.87
2018-07-26T23:54:47.680Z,9.80
2018-07-26T23:57:14.972Z,9.50
2018-07-26T23:59:42.244Z,10.73
